Time;durP1;ratioP1;P1;durP2;ratioP2;P2;SDS_P1;SDS_P2;PMS_P1;PMS_P2;Temp;Humidity;BMP_temperature;BMP_pressure;BME280_temperature;BME280_humidity;BME280_pressure;Samples;Min_cycle;Max_cycle;Signal;HPM_P1;HPM_P2
2022/11/26 00:00:51;;;;;;;168.60;106.20;;;;;;;1.68;100.00;99512.42;105941;1290;59729;-74
2022/11/26 00:03:30;;;;;;;272.10;105.10;;;;;;;1.61;100.00;99511.54;105933;1289;64007;-73
2022/11/26 00:05:56;;;;;;;294.90;98.20;;;;;;;1.50;100.00;99514.91;105948;1289;58968;-73
2022/11/26 00:08:33;;;;;;;281.70;106.30;;;;;;;1.39;100.00;99516.39;105930;1291;58896;-73
2022/11/26 00:11:01;;;;;;;245.10;105.10;;;;;;;1.33;100.00;99516.00;105944;1290;64700;-74
2022/11/26 00:13:30;;;;;;;290.00;113.20;;;;;;;1.32;100.00;99514.08;105933;1291;69103;-74
2022/11/26 00:15:56;;;;;;;227.00;104.50;;;;;;;1.34;100.00;99512.47;105931;1290;63087;-74
2022/11/26 00:18:25;;;;;;;269.30;107.70;;;;;;;1.29;100.00;99515.71;105917;1290;58972;-74
2022/11/26 00:20:58;;;;;;;252.60;104.90;;;;;;;1.22;100.00;99516.05;105951;1289;58773;-74
2022/11/26 00:23:26;;;;;;;171.20;104.60;;;;;;;1.16;100.00;99517.91;105910;1288;65989;-74
2022/11/26 00:26:00;;;;;;;280.90;111.50;;;;;;;1.14;100.00;99523.75;105927;1290;67817;-74
2022/11/26 00:28:36;;;;;;;264.70;106.10;;;;;;;1.10;100.00;99522.93;105962;1290;72619;-74
2022/11/26 00:31:12;;;;;;;230.10;102.20;;;;;;;1.03;100.00;99526.58;105914;1290;60326;-73
2022/11/26 00:33:39;;;;;;;188.80;107.80;;;;;;;0.99;100.00;99527.53;105930;1288;58828;-74
2022/11/26 00:36:25;;;;;;;141.40;100.60;;;;;;;0.97;100.00;99534.21;105954;1290;66053;-73
2022/11/26 00:38:55;;;;;;;174.60;113.10;;;;;;;0.98;100.00;99534.20;105932;1291;69938;-73
2022/11/26 00:41:25;;;;;;;177.60;116.40;;;;;;;0.99;100.00;99536.44;105938;1290;63874;-74
2022/11/26 00:43:51;;;;;;;153.90;107.60;;;;;;;0.99;100.00;99537.86;105918;1296;59117;-74
2022/11/26 00:46:21;;;;;;;171.80;118.20;;;;;;;1.00;100.00;99535.90;105946;1292;58860;-74
2022/11/26 00:48:47;;;;;;;160.20;117.10;;;;;;;1.05;100.00;99536.86;105935;1292;66580;-73
2022/11/26 00:51:19;;;;;;;164.60;117.10;;;;;;;1.11;100.00;99540.41;105718;1290;59128;-74
2022/11/26 00:53:46;;;;;;;166.30;119.60;;;;;;;1.17;100.00;99545.20;105915;1292;73833;-74
2022/11/26 00:56:17;;;;;;;165.80;117.70;;;;;;;1.19;100.00;99543.92;105736;1292;59031;-74
2022/11/26 00:58:44;;;;;;;160.10;112.80;;;;;;;1.20;100.00;99544.61;105664;1299;58900;-74
2022/11/26 01:01:12;;;;;;;161.80;111.40;;;;;;;1.20;100.00;99550.20;105883;1289;67211;-74
2022/11/26 01:03:42;;;;;;;145.10;106.20;;;;;;;1.21;100.00;99548.61;105927;1291;59004;-74
2022/11/26 01:06:16;;;;;;;146.60;110.70;;;;;;;1.24;100.00;99545.06;105922;1289;73851;-73
2022/11/26 01:08:42;;;;;;;165.90;113.70;;;;;;;1.26;100.00;99541.85;105921;1292;58943;-74
2022/11/26 01:11:13;;;;;;;172.00;121.50;;;;;;;1.30;100.00;99541.09;105928;1296;58806;-74
2022/11/26 01:13:40;;;;;;;160.50;113.40;;;;;;;1.33;100.00;99545.94;105927;1290;66023;-74
2022/11/26 01:16:15;;;;;;;164.50;120.40;;;;;;;1.35;100.00;99543.25;105944;1290;60316;-74
2022/11/26 01:18:41;;;;;;;151.10;110.60;;;;;;;1.38;100.00;99544.96;105681;1302;73932;-74
2022/11/26 01:21:10;;;;;;;156.30;112.90;;;;;;;1.39;100.00;99550.36;105924;1290;59188;-74
2022/11/26 01:23:37;;;;;;;171.70;123.40;;;;;;;1.42;100.00;99550.82;105789;1289;58940;-74
2022/11/26 01:26:04;;;;;;;182.00;125.90;;;;;;;1.45;100.00;99551.80;105938;1290;67221;-74
2022/11/26 01:28:30;;;;;;;181.40;124.10;;;;;;;1.47;100.00;99553.32;105784;1290;58945;-73
2022/11/26 01:30:56;;;;;;;204.70;129.40;;;;;;;1.50;100.00;99559.06;105943;1297;59446;-74
2022/11/26 01:33:22;;;;;;;194.90;135.30;;;;;;;1.52;100.00;99560.41;105919;1292;58874;-74
2022/11/26 01:35:48;;;;;;;173.00;122.10;;;;;;;1.55;100.00;99563.69;105930;1292;59382;-74
2022/11/26 01:38:14;;;;;;;171.00;121.30;;;;;;;1.57;100.00;99560.48;105923;1290;58959;-74
2022/11/26 01:40:58;;;;;;;222.10;138.80;;;;;;;1.61;100.00;99562.86;105923;1290;58929;-74
2022/11/26 01:43:35;;;;;;;202.90;129.10;;;;;;;1.64;100.00;99561.91;105907;1296;64258;-74
2022/11/26 01:46:01;;;;;;;199.20;128.50;;;;;;;1.66;100.00;99564.48;105900;1287;60065;-74
2022/11/26 01:48:33;;;;;;;255.60;152.50;;;;;;;1.70;100.00;99567.03;105897;1287;58984;-73
2022/11/26 01:51:06;;;;;;;313.40;164.00;;;;;;;1.72;100.00;99559.65;105931;1292;75924;-73
2022/11/26 01:53:39;;;;;;;259.30;154.50;;;;;;;1.73;100.00;99562.92;105941;1291;59749;-73
2022/11/26 01:56:15;;;;;;;291.50;156.40;;;;;;;1.76;100.00;99563.39;105931;1289;64253;-73
2022/11/26 01:58:52;;;;;;;315.80;164.10;;;;;;;1.78;100.00;99568.61;105901;1288;59054;-73
2022/11/26 02:01:18;;;;;;;360.50;171.70;;;;;;;1.79;100.00;99567.90;105914;1285;60420;-73
2022/11/26 02:04:11;;;;;;;385.50;177.40;;;;;;;1.79;100.00;99567.20;105955;1292;66354;-73
2022/11/26 02:06:38;;;;;;;364.30;170.70;;;;;;;1.77;100.00;99567.40;105591;1287;69006;-73
2022/11/26 02:09:06;;;;;;;349.00;172.10;;;;;;;1.74;100.00;99571.14;105930;1299;65276;-73
2022/11/26 02:11:33;;;;;;;315.80;167.90;;;;;;;1.72;100.00;99568.03;105920;1290;59906;-73
2022/11/26 02:14:07;;;;;;;278.40;153.00;;;;;;;1.70;100.00;99570.70;105782;1292;58919;-73
2022/11/26 02:16:46;;;;;;;252.50;145.40;;;;;;;1.69;100.00;99568.98;105937;1290;67281;-73
2022/11/26 02:19:31;;;;;;;236.10;143.40;;;;;;;1.67;100.00;99568.50;105969;1289;58991;-74
2022/11/26 02:22:34;;;;;;;223.90;138.60;;;;;;;1.64;100.00;99570.14;105910;1288;65206;-73
2022/11/26 02:25:41;;;;;;;219.40;135.10;;;;;;;1.62;100.00;99571.94;105184;1291;1002501;-73
2022/11/26 02:28:25;;;;;;;243.30;143.20;;;;;;;1.58;100.00;99575.53;105394;1297;59545;-73
2022/11/26 02:30:57;;;;;;;225.00;135.40;;;;;;;1.55;100.00;99573.14;105370;1298;66997;-73
2022/11/26 02:33:31;;;;;;;206.20;129.20;;;;;;;1.51;100.00;99576.36;105447;1291;58950;-74
2022/11/26 02:36:04;;;;;;;240.70;135.20;;;;;;;1.46;100.00;99581.90;105429;1305;63958;-74
2022/11/26 02:38:33;;;;;;;228.80;135.60;;;;;;;1.39;100.00;99578.19;105389;1304;59004;-73
2022/11/26 02:40:59;;;;;;;243.40;133.00;;;;;;;1.33;100.00;99581.27;105335;1302;59232;-74
2022/11/26 02:43:27;;;;;;;229.00;137.30;;;;;;;1.26;100.00;99582.29;105322;1296;58972;-74
2022/11/26 02:45:58;;;;;;;210.90;133.10;;;;;;;1.20;100.00;99585.21;105369;1305;61494;-74
2022/11/26 02:48:30;;;;;;;248.90;141.10;;;;;;;1.13;100.00;99586.05;105351;1298;64273;-74
2022/11/26 02:51:12;;;;;;;271.20;139.50;;;;;;;1.04;100.00;99589.37;104718;1298;1003189;-73
2022/11/26 02:53:39;;;;;;;266.10;142.30;;;;;;;0.93;100.00;99592.36;105429;1290;61336;-74
2022/11/26 02:56:15;;;;;;;259.70;138.00;;;;;;;0.86;100.00;99594.23;105446;1297;65088;-74
2022/11/26 02:58:42;;;;;;;269.00;140.40;;;;;;;0.80;100.00;99596.11;105454;1298;61303;-74
2022/11/26 03:01:28;;;;;;;235.30;138.90;;;;;;;0.73;100.00;99599.02;105337;1305;65550;-74
2022/11/26 03:03:58;;;;;;;226.30;132.50;;;;;;;0.67;100.00;99600.86;105597;1299;58942;-74
2022/11/26 03:06:30;;;;;;;229.40;131.30;;;;;;;0.63;100.00;99603.92;105909;1292;58814;-74
2022/11/26 03:08:56;;;;;;;238.50;133.90;;;;;;;0.58;100.00;99601.55;105786;1290;75878;-74
2022/11/26 03:11:21;;;;;;;226.20;130.20;;;;;;;0.53;100.00;99599.19;105921;1288;58936;-74
2022/11/26 03:13:48;;;;;;;230.10;134.20;;;;;;;0.49;100.00;99598.21;105693;1290;59352;-74
2022/11/26 03:16:16;;;;;;;227.80;135.40;;;;;;;0.44;100.00;99603.00;105934;1291;58932;-74
2022/11/26 03:18:42;;;;;;;238.10;135.50;;;;;;;0.40;100.00;99604.98;105779;1289;58889;-73
2022/11/26 03:21:08;;;;;;;228.10;129.70;;;;;;;0.36;100.00;99604.52;105915;1285;58823;-73
2022/11/26 03:23:35;;;;;;;232.30;129.00;;;;;;;0.31;100.00;99608.11;105924;1290;59347;-74
2022/11/26 03:26:00;;;;;;;239.40;132.90;;;;;;;0.27;100.00;99609.55;105932;1291;58875;-73
2022/11/26 03:28:29;;;;;;;225.50;128.90;;;;;;;0.25;100.00;99607.15;105894;1291;59253;-73
2022/11/26 03:30:55;;;;;;;227.90;131.00;;;;;;;0.20;100.00;99609.32;105913;1287;58894;-74
2022/11/26 03:33:21;;;;;;;234.90;136.20;;;;;;;0.16;100.00;99608.15;105924;1287;64922;-74
2022/11/26 03:35:48;;;;;;;247.10;126.20;;;;;;;0.15;100.00;99611.48;105706;1294;59705;-73
2022/11/26 03:38:15;;;;;;;242.10;128.80;;;;;;;0.13;100.00;99605.93;105913;1296;72705;-74
2022/11/26 03:40:41;;;;;;;243.80;131.60;;;;;;;0.12;100.00;99607.34;105928;1289;59116;-74
2022/11/26 03:43:08;;;;;;;226.70;129.80;;;;;;;0.13;100.00;99610.82;105924;1288;59264;-74
2022/11/26 03:45:34;;;;;;;244.50;130.40;;;;;;;0.13;100.00;99612.57;105903;1282;58982;-74
2022/11/26 03:47:59;;;;;;;220.60;125.80;;;;;;;0.13;100.00;99613.61;105943;1291;58879;-74
2022/11/26 03:50:26;;;;;;;203.50;122.70;;;;;;;0.13;100.00;99613.44;105909;1291;58846;-74
2022/11/26 03:52:52;;;;;;;193.30;115.60;;;;;;;0.12;100.00;99611.36;105905;1292;58962;-74
2022/11/26 03:55:18;;;;;;;210.50;127.20;;;;;;;0.12;100.00;99612.59;105905;1292;58891;-75
2022/11/26 03:57:44;;;;;;;190.20;119.20;;;;;;;0.13;100.00;99614.67;105775;1297;59008;-74
2022/11/26 04:00:11;;;;;;;191.90;121.80;;;;;;;0.13;100.00;99615.71;105934;1291;59036;-74
2022/11/26 04:02:37;;;;;;;190.20;122.30;;;;;;;0.16;100.00;99614.80;105887;1291;59087;-74
2022/11/26 04:05:03;;;;;;;174.70;118.20;;;;;;;0.18;100.00;99617.20;105911;1283;58959;-74
2022/11/26 04:07:29;;;;;;;181.20;117.70;;;;;;;0.19;100.00;99618.59;105934;1291;59068;-74
2022/11/26 04:09:55;;;;;;;172.10;112.50;;;;;;;0.20;100.00;99614.73;105962;1283;59009;-74
2022/11/26 04:12:21;;;;;;;178.50;116.90;;;;;;;0.19;100.00;99620.86;105888;1292;62874;-74
2022/11/26 04:14:48;;;;;;;174.40;116.30;;;;;;;0.19;100.00;99625.75;105923;1295;58757;-73
2022/11/26 04:17:13;;;;;;;182.20;122.10;;;;;;;0.19;100.00;99628.20;105918;1291;58802;-75
2022/11/26 04:19:39;;;;;;;180.20;119.10;;;;;;;0.17;100.00;99631.38;105899;1291;58876;-75
2022/11/26 04:22:06;;;;;;;176.20;116.70;;;;;;;0.16;100.00;99632.29;105920;1283;59338;-76
2022/11/26 04:24:32;;;;;;;172.80;115.10;;;;;;;0.14;100.00;99635.98;105915;1291;58906;-74
2022/11/26 04:26:58;;;;;;;174.20;114.10;;;;;;;0.11;100.00;99634.79;105904;1283;59061;-74
2022/11/26 04:29:24;;;;;;;176.40;114.80;;;;;;;0.09;100.00;99640.75;105933;1289;59690;-74
2022/11/26 04:31:49;;;;;;;174.00;114.80;;;;;;;0.06;100.00;99646.56;105934;1292;59195;-73
2022/11/26 04:34:15;;;;;;;188.20;117.60;;;;;;;0.03;100.00;99646.77;105598;1287;59283;-74
2022/11/26 04:36:42;;;;;;;185.10;121.60;;;;;;;0.01;100.00;99647.50;105671;1294;58942;-73
2022/11/26 04:39:08;;;;;;;179.10;120.40;;;;;;;-0.02;100.00;99648.94;105928;1291;58933;-75
2022/11/26 04:41:34;;;;;;;196.90;123.80;;;;;;;-0.04;100.00;99655.97;105922;1290;59171;-74
2022/11/26 04:44:00;;;;;;;179.50;118.70;;;;;;;-0.08;100.00;99659.67;105907;1290;59226;-73
2022/11/26 04:46:26;;;;;;;185.70;120.10;;;;;;;-0.11;100.00;99658.48;105922;1290;59022;-73
2022/11/26 04:48:52;;;;;;;185.50;122.80;;;;;;;-0.14;100.00;99660.10;105939;1290;59018;-74
2022/11/26 04:51:18;;;;;;;179.20;117.20;;;;;;;-0.15;100.00;99663.80;105916;1283;58825;-74
2022/11/26 04:53:43;;;;;;;183.60;120.10;;;;;;;-0.15;100.00;99664.31;105974;1291;59167;-74
2022/11/26 04:56:09;;;;;;;177.10;113.30;;;;;;;-0.16;100.00;99666.94;105915;1291;65227;-74
2022/11/26 04:58:36;;;;;;;172.30;114.30;;;;;;;-0.19;100.00;99668.20;105921;1290;58961;-73
2022/11/26 05:01:02;;;;;;;173.70;116.00;;;;;;;-0.24;100.00;99674.54;105924;1275;58920;-74
2022/11/26 05:03:28;;;;;;;185.00;121.30;;;;;;;-0.27;100.00;99671.79;105938;1287;59007;-74
2022/11/26 05:05:56;;;;;;;182.50;117.00;;;;;;;-0.31;100.00;99673.75;105946;1290;58893;-74
2022/11/26 05:08:22;;;;;;;176.70;113.20;;;;;;;-0.37;100.00;99672.44;105915;1290;64384;-74
2022/11/26 05:10:53;;;;;;;177.10;110.60;;;;;;;-0.39;100.00;99677.70;105941;1290;58935;-74
2022/11/26 05:13:19;;;;;;;173.50;112.60;;;;;;;-0.46;100.00;99676.73;105813;1293;58921;-74
2022/11/26 05:15:45;;;;;;;183.30;116.00;;;;;;;-0.51;100.00;99672.94;105915;1290;58959;-74
2022/11/26 05:18:11;;;;;;;168.90;110.90;;;;;;;-0.52;100.00;99673.13;105927;1289;58950;-74
2022/11/26 05:20:37;;;;;;;169.50;110.20;;;;;;;-0.53;100.00;99674.90;105163;1291;1002205;-74
2022/11/26 05:23:03;;;;;;;183.70;115.20;;;;;;;-0.56;100.00;99677.55;105890;1297;59439;-74
2022/11/26 05:25:29;;;;;;;198.30;119.80;;;;;;;-0.58;100.00;99680.52;105921;1289;58862;-74
2022/11/26 05:27:55;;;;;;;189.70;123.00;;;;;;;-0.58;100.00;99679.48;105912;1291;59184;-74
2022/11/26 05:30:21;;;;;;;173.50;169.30;;;;;;;-0.56;100.00;99674.92;105933;1290;58879;-74
2022/11/26 05:32:47;;;;;;;169.40;112.40;;;;;;;-0.54;100.00;99675.05;105934;1290;58955;-74
2022/11/26 05:35:13;;;;;;;172.60;111.60;;;;;;;-0.53;100.00;99677.50;104209;1294;1002421;-73
2022/11/26 05:37:39;;;;;;;165.70;110.00;;;;;;;-0.53;100.00;99674.35;105909;1288;58947;-74
2022/11/26 05:40:06;;;;;;;167.50;114.20;;;;;;;-0.50;100.00;99678.70;105945;1290;59072;-73
2022/11/26 05:42:32;;;;;;;163.70;111.10;;;;;;;-0.46;100.00;99681.96;105923;1289;58914;-74
2022/11/26 05:44:58;;;;;;;165.40;110.70;;;;;;;-0.43;100.00;99684.72;105668;1294;58905;-74
2022/11/26 05:47:23;;;;;;;161.60;108.30;;;;;;;-0.39;100.00;99684.15;105918;1291;58870;-74
2022/11/26 05:49:50;;;;;;;169.70;114.00;;;;;;;-0.32;100.00;99685.64;105894;1289;59154;-74
2022/11/26 05:52:17;;;;;;;181.60;118.90;;;;;;;-0.25;100.00;99692.71;105930;1290;58902;-73
2022/11/26 05:54:43;;;;;;;189.40;127.00;;;;;;;-0.19;100.00;99697.36;105892;1290;60346;-74
2022/11/26 05:57:09;;;;;;;194.00;131.30;;;;;;;-0.14;100.00;99700.27;105912;1283;58997;-73
2022/11/26 05:59:35;;;;;;;183.10;130.10;;;;;;;-0.06;100.00;99701.92;105925;1283;59326;-74
2022/11/26 06:02:01;;;;;;;186.80;128.60;;;;;;;0.01;100.00;99702.17;105979;1287;59476;-75
2022/11/26 06:04:28;;;;;;;187.10;128.10;;;;;;;0.09;100.00;99702.43;105934;1288;65119;-74
2022/11/26 06:06:53;;;;;;;178.70;126.90;;;;;;;0.14;100.00;99701.14;105911;1291;58853;-75
2022/11/26 06:09:20;;;;;;;176.40;127.90;;;;;;;0.20;100.00;99707.18;105932;1291;58815;-73
2022/11/26 06:11:49;;;;;;;192.50;137.80;;;;;;;0.25;100.00;99707.46;105930;1290;59192;-74
2022/11/26 06:14:15;;;;;;;202.40;144.10;;;;;;;0.31;100.00;99709.11;105781;1292;59133;-73
2022/11/26 06:16:41;;;;;;;201.20;145.10;;;;;;;0.38;100.00;99712.86;105901;1290;58992;-74
2022/11/26 06:19:07;;;;;;;207.00;148.40;;;;;;;0.46;100.00;99719.92;105948;1284;59174;-74
2022/11/26 06:21:32;;;;;;;214.80;152.10;;;;;;;0.53;100.00;99723.48;105911;1290;58917;-74
2022/11/26 06:23:58;;;;;;;206.60;144.70;;;;;;;0.60;100.00;99730.04;105927;1290;59094;-74
2022/11/26 06:26:25;;;;;;;190.80;133.60;;;;;;;0.66;100.00;99733.10;105932;1284;59040;-74
2022/11/26 06:28:51;;;;;;;191.90;137.70;;;;;;;0.70;100.00;99735.13;105905;1290;59053;-74
2022/11/26 06:31:17;;;;;;;195.40;137.00;;;;;;;0.74;100.00;99738.91;105605;1295;59020;-76
2022/11/26 06:33:44;;;;;;;187.00;127.60;;;;;;;0.79;100.00;99740.77;105918;1283;58874;-74
2022/11/26 06:36:10;;;;;;;176.30;127.60;;;;;;;0.80;100.00;99743.02;105925;1284;58996;-74
2022/11/26 06:38:36;;;;;;;186.60;131.20;;;;;;;0.80;100.00;99743.55;105952;1276;58979;-75
2022/11/26 06:41:05;;;;;;;182.80;131.50;;;;;;;0.82;100.00;99746.48;105941;1291;59031;-75
2022/11/26 06:43:32;;;;;;;172.10;126.80;;;;;;;0.84;100.00;99747.35;105925;1291;59187;-73
2022/11/26 06:46:03;;;;;;;171.60;124.40;;;;;;;0.84;100.00;99748.74;105918;1283;64848;-75
2022/11/26 06:48:31;;;;;;;184.30;132.10;;;;;;;0.85;100.00;99749.42;105910;1291;69695;-73
2022/11/26 06:51:03;;;;;;;191.20;136.10;;;;;;;0.87;100.00;99747.30;105922;1283;63809;-74
2022/11/26 06:53:28;;;;;;;192.80;137.50;;;;;;;0.93;100.00;99749.65;105915;1287;60044;-75
2022/11/26 06:56:15;;;;;;;209.40;145.50;;;;;;;0.99;100.00;99753.05;105944;1290;58934;-74
2022/11/26 06:58:43;;;;;;;215.00;157.30;;;;;;;1.04;100.00;99757.17;105954;1290;65252;-73
2022/11/26 07:01:11;;;;;;;223.90;161.20;;;;;;;1.12;100.00;99756.17;105930;1290;67318;-76
2022/11/26 07:03:38;;;;;;;244.60;173.20;;;;;;;1.22;100.00;99760.22;105758;1295;64290;-74
2022/11/26 07:06:04;;;;;;;215.20;157.00;;;;;;;1.31;100.00;99763.56;106044;1281;58927;-75
2022/11/26 07:08:30;;;;;;;200.70;152.70;;;;;;;1.40;100.00;99768.48;106052;1281;58873;-74
2022/11/26 07:11:01;;;;;;;202.70;150.40;;;;;;;1.45;100.00;99771.19;106064;1288;58936;-74
2022/11/26 07:13:27;;;;;;;196.10;145.90;;;;;;;1.51;100.00;99770.20;106074;1288;59241;-74
2022/11/26 07:15:52;;;;;;;184.70;137.90;;;;;;;1.56;100.00;99774.52;106039;1282;58953;-74
2022/11/26 07:18:18;;;;;;;182.70;135.50;;;;;;;1.58;100.00;99772.91;106046;1288;59125;-75
2022/11/26 07:20:46;;;;;;;185.60;137.30;;;;;;;1.61;100.00;99777.04;106083;1278;59180;-75
2022/11/26 07:23:12;;;;;;;184.80;134.30;;;;;;;1.66;100.00;99782.02;106059;1289;59348;-74
2022/11/26 07:25:37;;;;;;;170.90;127.00;;;;;;;1.73;100.00;99788.39;106058;1288;59205;-74
2022/11/26 07:28:03;;;;;;;176.80;132.10;;;;;;;1.81;100.00;99788.60;106057;1288;59055;-74
2022/11/26 07:30:29;;;;;;;162.40;130.20;;;;;;;1.88;100.00;99788.29;106052;1281;59038;-74
2022/11/26 07:32:55;;;;;;;172.40;133.70;;;;;;;1.96;100.00;99787.26;106032;1282;58952;-74
2022/11/26 07:35:21;;;;;;;164.70;130.80;;;;;;;2.05;100.00;99789.02;106122;1288;59027;-74
2022/11/26 07:37:47;;;;;;;178.70;134.50;;;;;;;2.15;100.00;99789.16;105778;1294;62711;-74
2022/11/26 07:40:13;;;;;;;172.40;134.70;;;;;;;2.27;100.00;99788.91;106065;1288;58984;-74
2022/11/26 07:42:40;;;;;;;192.00;141.90;;;;;;;2.37;100.00;99789.58;106105;1281;58930;-75
2022/11/26 07:45:06;;;;;;;179.50;138.70;;;;;;;2.49;100.00;99794.23;106056;1285;58970;-75
2022/11/26 07:47:32;;;;;;;169.90;135.00;;;;;;;2.62;100.00;99794.14;106076;1281;58961;-73
2022/11/26 07:49:59;;;;;;;165.90;127.90;;;;;;;2.76;100.00;99788.76;106055;1280;58856;-74
2022/11/26 07:52:26;;;;;;;153.40;117.60;;;;;;;2.92;100.00;99793.47;106058;1282;58965;-74
2022/11/26 07:54:52;;;;;;;149.80;110.10;;;;;;;3.06;100.00;99795.95;106074;1281;58842;-75
2022/11/26 07:57:20;;;;;;;140.70;108.80;;;;;;;3.19;100.00;99798.66;106072;1289;59060;-76
2022/11/26 07:59:46;;;;;;;127.00;93.70;;;;;;;3.32;100.00;99801.50;106049;1289;69888;-74
2022/11/26 08:02:15;;;;;;;120.60;87.80;;;;;;;3.41;100.00;99804.42;106090;1288;59342;-74
2022/11/26 08:04:42;;;;;;;109.00;81.00;;;;;;;3.51;100.00;99805.05;105602;1301;59201;-74
2022/11/26 08:07:08;;;;;;;113.60;82.60;;;;;;;3.60;100.00;99809.41;105649;1294;59034;-75
2022/11/26 08:09:34;;;;;;;100.20;74.10;;;;;;;3.67;100.00;99812.20;105641;1288;59209;-74
2022/11/26 08:12:00;;;;;;;94.80;73.10;;;;;;;3.73;100.00;99813.12;105647;1294;59049;-76
2022/11/26 08:14:26;;;;;;;91.10;66.30;;;;;;;3.78;100.00;99814.73;105651;1294;58951;-74
2022/11/26 08:16:52;;;;;;;95.00;68.80;;;;;;;3.84;100.00;99818.27;105613;1294;58982;-75
2022/11/26 08:19:18;;;;;;;95.10;69.50;;;;;;;3.87;100.00;99815.56;105638;1294;59003;-75
2022/11/26 08:21:44;;;;;;;92.80;68.00;;;;;;;3.92;100.00;99820.86;105633;1294;58975;-75
2022/11/26 08:24:13;;;;;;;103.40;77.70;;;;;;;3.96;100.00;99823.05;105657;1293;58936;-75
2022/11/26 08:26:42;;;;;;;104.60;81.20;;;;;;;4.00;100.00;99822.25;105584;1297;59518;-74
2022/11/26 08:29:08;;;;;;;109.90;80.60;;;;;;;4.04;100.00;99825.47;105624;1294;58878;-75
2022/11/26 08:31:34;;;;;;;87.30;67.60;;;;;;;4.08;100.00;99825.71;105639;1294;59031;-76
2022/11/26 08:34:02;;;;;;;89.80;66.50;;;;;;;4.13;100.00;99824.70;105653;1290;58977;-76
2022/11/26 08:36:30;;;;;;;91.80;66.30;;;;;;;4.17;100.00;99825.11;105875;1291;63845;-75
2022/11/26 08:38:57;;;;;;;87.00;67.40;;;;;;;4.23;100.00;99824.96;106057;1288;59257;-75
2022/11/26 08:41:24;;;;;;;88.40;71.10;;;;;;;4.29;100.00;99828.31;106058;1288;58726;-74
2022/11/26 08:43:50;;;;;;;87.60;65.60;;;;;;;4.34;100.00;99822.52;106067;1288;58883;-75
2022/11/26 08:46:16;;;;;;;84.60;66.40;;;;;;;4.41;100.00;99826.40;106082;1288;58996;-77
2022/11/26 08:48:44;;;;;;;88.40;66.00;;;;;;;4.47;100.00;99827.98;106053;1280;58836;-74
2022/11/26 08:51:11;;;;;;;82.10;62.10;;;;;;;4.52;100.00;99826.08;106032;1281;58809;-74
2022/11/26 08:53:38;;;;;;;77.80;58.10;;;;;;;4.57;100.00;99825.92;106057;1281;58737;-74
2022/11/26 08:56:09;;;;;;;78.70;60.40;;;;;;;4.63;100.00;99828.59;106066;1281;65983;-75
2022/11/26 08:58:38;;;;;;;86.80;63.50;;;;;;;4.69;100.00;99828.57;106068;1289;69184;-75
2022/11/26 09:01:18;;;;;;;81.70;59.60;;;;;;;4.75;100.00;99833.67;105886;1292;65134;-75
2022/11/26 09:03:49;;;;;;;84.30;61.00;;;;;;;4.82;100.00;99836.09;105672;1294;58825;-75
2022/11/26 09:06:17;;;;;;;81.30;60.80;;;;;;;4.88;100.00;99839.27;105886;1290;58826;-75
2022/11/26 09:09:11;;;;;;;74.20;57.80;;;;;;;4.92;100.00;99841.26;105978;1288;67272;-75
2022/11/26 09:11:29;;;;;;;67.80;52.80;;;;;;;4.96;100.00;99846.41;106065;1282;60990;-75
2022/11/26 09:13:57;;;;;;;66.00;49.50;;;;;;;5.00;100.00;99848.05;106042;1288;58945;-73
2022/11/26 09:16:24;;;;;;;70.90;50.90;;;;;;;5.04;100.00;99851.11;105642;1291;58953;-75
2022/11/26 09:18:51;;;;;;;72.70;52.60;;;;;;;5.09;100.00;99846.56;106070;1287;59082;-75
2022/11/26 09:21:18;;;;;;;66.00;49.60;;;;;;;5.14;100.00;99850.27;106069;1289;73521;-74
2022/11/26 09:23:44;;;;;;;67.70;51.60;;;;;;;5.17;100.00;99851.40;106051;1288;69283;-74
2022/11/26 09:26:10;;;;;;;61.80;45.00;;;;;;;5.19;100.00;99850.98;106057;1282;59183;-75
2022/11/26 09:28:38;;;;;;;49.20;37.80;;;;;;;5.22;100.00;99852.31;106054;1289;58982;-75
2022/11/26 09:31:04;;;;;;;55.20;42.20;;;;;;;5.25;100.00;99854.88;106073;1288;58948;-74
2022/11/26 09:33:31;;;;;;;52.60;38.40;;;;;;;5.27;100.00;99856.02;106049;1288;73535;-74
2022/11/26 09:36:07;;;;;;;48.20;38.50;;;;;;;5.32;100.00;99853.41;106056;1287;61666;-74
2022/11/26 09:38:33;;;;;;;54.30;38.50;;;;;;;5.35;100.00;99855.41;105771;1287;65194;-74
2022/11/26 09:41:20;;;;;;;52.40;39.00;;;;;;;5.37;100.00;99856.77;105672;1290;59013;-75
2022/11/26 09:44:21;;;;;;;47.40;36.00;;;;;;;5.38;100.00;99856.91;106024;1281;58697;-75
2022/11/26 09:47:04;;;;;;;51.40;38.40;;;;;;;5.39;100.00;99856.00;106059;1288;74889;-75
2022/11/26 09:49:36;;;;;;;48.60;36.70;;;;;;;5.40;100.00;99857.58;106075;1289;58999;-75
2022/11/26 09:52:07;;;;;;;55.00;38.00;;;;;;;5.40;100.00;99858.43;106033;1285;71849;-75
2022/11/26 09:54:33;;;;;;;48.60;38.00;;;;;;;5.42;100.00;99858.02;106044;1288;60005;-75
2022/11/26 09:57:20;;;;;;;52.60;39.30;;;;;;;5.45;100.00;99861.63;106053;1281;58839;-74
2022/11/26 09:59:48;;;;;;;49.80;36.40;;;;;;;5.46;100.00;99859.33;106049;1281;75833;-74
2022/11/26 10:02:14;;;;;;;51.90;36.90;;;;;;;5.46;100.00;99860.73;106073;1288;61287;-75
2022/11/26 10:04:41;;;;;;;48.60;35.40;;;;;;;5.44;100.00;99859.19;105867;1285;58947;-74
2022/11/26 10:07:49;;;;;;;52.00;36.40;;;;;;;5.42;100.00;99857.15;106045;1288;58894;-74
2022/11/26 10:10:25;;;;;;;47.30;36.50;;;;;;;5.39;100.00;99859.19;106091;1296;58709;-75
2022/11/26 10:13:18;;;;;;;50.20;37.80;;;;;;;5.37;100.00;99860.99;106057;1282;65823;-75
2022/11/26 10:16:06;;;;;;;47.30;36.60;;;;;;;5.36;100.00;99862.80;106061;1290;59870;-75
2022/11/26 10:18:45;;;;;;;53.90;36.70;;;;;;;5.38;100.00;99862.55;106058;1289;72811;-74
2022/11/26 10:21:26;;;;;;;;;;;;;;;5.41;100.00;99868.97;106069;1281;58855;-74
2022/11/26 10:24:10;;;;;;;56.30;38.00;;;;;;;5.44;100.00;99866.60;106076;1288;58811;-74
2022/11/26 10:26:38;;;;;;;50.90;38.60;;;;;;;5.53;100.00;99865.25;106045;1281;66142;-75
2022/11/26 10:29:23;;;;;;;49.90;37.30;;;;;;;5.67;100.00;99863.73;106070;1288;59782;-74
2022/11/26 10:31:55;;;;;;;50.10;36.30;;;;;;;5.77;100.00;99865.33;105881;1291;64804;-74
2022/11/26 10:34:25;;;;;;;51.00;39.00;;;;;;;5.82;100.00;99862.36;106057;1288;59848;-74
2022/11/26 10:36:52;;;;;;;54.60;41.80;;;;;;;5.82;100.00;99861.85;106071;1288;60414;-73
2022/11/26 10:39:19;;;;;;;50.00;38.50;;;;;;;5.78;100.00;99860.02;106056;1289;64651;-75
2022/11/26 10:41:46;;;;;;;51.10;38.00;;;;;;;5.74;100.00;99863.16;105908;1290;59940;-74
2022/11/26 10:44:38;;;;;;;56.70;39.30;;;;;;;5.70;100.00;99861.34;105949;1291;65031;-74
2022/11/26 10:47:18;;;;;;;51.60;38.70;;;;;;;5.68;100.00;99858.77;105832;1283;164999;-74
2022/11/26 10:49:45;;;;;;;49.20;36.00;;;;;;;5.67;100.00;99858.09;105739;1292;59685;-74
2022/11/26 10:52:16;;;;;;;50.60;36.90;;;;;;;5.68;100.00;99860.00;105891;1289;59286;-74
2022/11/26 10:54:43;;;;;;;47.90;35.80;;;;;;;5.70;100.00;99856.92;105883;1290;58874;-74
2022/11/26 10:57:16;;;;;;;53.70;38.40;;;;;;;5.75;100.00;99858.36;105925;1291;63805;-74
2022/11/26 10:59:42;;;;;;;47.90;36.40;;;;;;;5.79;100.00;99855.58;105771;1293;59978;-75
2022/11/26 11:02:27;;;;;;;52.50;36.50;;;;;;;5.82;100.00;99859.55;105937;1290;58916;-74
2022/11/26 11:04:57;;;;;;;55.80;38.10;;;;;;;5.85;100.00;99857.50;105868;1291;74893;-74
2022/11/26 11:07:33;;;;;;;50.80;36.40;;;;;;;5.84;100.00;99856.31;105912;1290;61390;-74